createdAt,value
2022-09-02T00:02:51.327Z,91.6
2022-09-02T00:07:51.209Z,91.6
2022-09-02T00:12:51.191Z,91.7
2022-09-02T00:17:51.214Z,92.1
2022-09-02T00:22:51.203Z,92.5
2022-09-02T00:27:51.200Z,92.8
2022-09-02T00:32:51.218Z,93.0
2022-09-02T00:37:51.199Z,93.3
2022-09-02T00:42:51.207Z,93.1
2022-09-02T00:47:51.227Z,93.4
2022-09-02T00:52:51.203Z,93.7
2022-09-02T00:57:51.201Z,93.8
2022-09-02T01:02:51.224Z,94.1
2022-09-02T01:07:51.198Z,94.5
2022-09-02T01:12:51.208Z,94.7
2022-09-02T01:17:51.209Z,95.4
2022-09-02T01:22:51.208Z,95.7
2022-09-02T01:27:51.216Z,95.8
2022-09-02T01:32:51.203Z,95.8
2022-09-02T01:37:55.894Z,96.1
2022-09-02T01:42:51.209Z,96.2
2022-09-02T01:47:51.209Z,96.4
2022-09-02T01:52:51.205Z,96.5
2022-09-02T01:57:51.231Z,97.1
2022-09-02T02:02:51.208Z,97.1
2022-09-02T02:07:51.258Z,97.2
2022-09-02T02:12:51.211Z,97.7
2022-09-02T02:17:51.265Z,98.0
2022-09-02T02:22:51.200Z,98.4
2022-09-02T02:27:51.227Z,98.5
2022-09-02T02:32:51.213Z,98.5
2022-09-02T02:37:51.235Z,98.6
2022-09-02T02:42:51.225Z,98.8
2022-09-02T02:47:51.214Z,99.2
2022-09-02T02:52:51.230Z,99.6
2022-09-02T02:57:51.224Z,99.7
2022-09-02T03:02:51.406Z,100.0
2022-09-02T03:07:51.239Z,100.0
2022-09-02T03:12:51.221Z,100.0
2022-09-02T03:17:51.226Z,100.0
2022-09-02T03:22:51.215Z,100.0
2022-09-02T03:27:51.236Z,100.0
2022-09-02T03:32:51.216Z,100.0
2022-09-02T03:37:51.231Z,100.0
2022-09-02T03:42:51.235Z,100.0
2022-09-02T03:47:51.274Z,100.0
2022-09-02T03:52:51.223Z,100.0
2022-09-02T03:57:51.230Z,100.0
2022-09-02T04:02:51.286Z,100.0
2022-09-02T04:07:51.252Z,100.0
2022-09-02T04:12:51.228Z,100.0
2022-09-02T04:17:51.246Z,100.0
2022-09-02T04:22:51.252Z,100.0
2022-09-02T04:27:51.249Z,100.0
2022-09-02T04:32:51.227Z,100.0
2022-09-02T04:37:51.240Z,100.0
2022-09-02T04:42:51.231Z,100.0
2022-09-02T04:47:51.244Z,100.0
2022-09-02T04:52:51.249Z,100.0
2022-09-02T04:57:51.268Z,100.0
2022-09-02T05:02:51.292Z,100.0
2022-09-02T05:07:51.248Z,100.0
2022-09-02T05:12:51.230Z,100.0
2022-09-02T05:17:51.253Z,100.0
2022-09-02T05:22:51.255Z,100.0
2022-09-02T05:27:51.248Z,100.0
2022-09-02T05:32:51.255Z,100.0
2022-09-02T05:37:51.253Z,100.0
2022-09-02T05:42:51.248Z,100.0
2022-09-02T05:47:51.258Z,100.0
2022-09-02T05:52:51.259Z,100.0
2022-09-02T05:57:51.254Z,100.0
2022-09-02T06:02:51.300Z,100.0
2022-09-02T06:07:51.259Z,100.0
2022-09-02T06:12:51.271Z,100.0
2022-09-02T06:17:51.304Z,100.0
2022-09-02T06:22:51.265Z,100.0
2022-09-02T06:27:51.276Z,100.0
2022-09-02T06:32:51.244Z,100.0
2022-09-02T06:37:51.274Z,100.0
2022-09-02T06:42:51.264Z,100.0
2022-09-02T06:47:51.268Z,100.0
2022-09-02T06:52:51.268Z,100.0
2022-09-02T06:57:51.275Z,100.0
2022-09-02T07:02:51.262Z,100.0
2022-09-02T07:07:51.289Z,100.0
2022-09-02T07:12:51.255Z,100.0
2022-09-02T07:17:51.276Z,100.0
2022-09-02T07:27:51.286Z,100.0
2022-09-02T07:32:51.263Z,100.0
2022-09-02T07:37:51.286Z,100.0
2022-09-02T07:42:51.315Z,100.0
2022-09-02T07:47:51.284Z,100.0
2022-09-02T07:52:51.288Z,100.0
2022-09-02T07:57:51.279Z,100.0
2022-09-02T08:02:51.444Z,100.0
2022-09-02T08:07:51.291Z,100.0
2022-09-02T08:12:51.289Z,100.0
2022-09-02T08:17:51.274Z,100.0
2022-09-02T08:23:00.849Z,99.8
2022-09-02T08:27:51.380Z,99.4
2022-09-02T08:32:51.279Z,98.7
2022-09-02T08:37:51.295Z,98.1
2022-09-02T08:42:51.932Z,97.7
2022-09-02T08:47:51.286Z,97.4
2022-09-02T08:52:51.293Z,96.9
2022-09-02T08:57:51.286Z,96.5
2022-09-02T09:02:51.311Z,96.1
2022-09-02T09:07:51.282Z,95.8
2022-09-02T09:12:51.297Z,95.4
2022-09-02T09:17:51.292Z,95.3
2022-09-02T09:22:51.297Z,95.0
2022-09-02T09:27:51.272Z,94.0
2022-09-02T09:32:51.292Z,93.1
2022-09-02T09:37:51.299Z,92.1
2022-09-02T09:42:51.320Z,90.1
2022-09-02T09:47:51.759Z,88.3
2022-09-02T09:52:51.292Z,87.2
2022-09-02T09:57:51.296Z,83.4
2022-09-02T10:02:51.304Z,80.9
2022-09-02T10:07:51.289Z,80.5
2022-09-02T10:12:51.300Z,79.4
2022-09-02T10:17:51.305Z,77.5
2022-09-02T10:23:00.089Z,76.5
2022-09-02T10:27:51.299Z,76.7
2022-09-02T10:32:51.349Z,76.5
2022-09-02T10:37:51.288Z,75.7
2022-09-02T10:42:51.288Z,74.6
2022-09-02T10:52:51.308Z,73.0
2022-09-02T10:57:51.311Z,69.6
2022-09-02T11:02:51.315Z,67.8
2022-09-02T11:07:51.302Z,66.5
2022-09-02T11:12:51.307Z,65.3
2022-09-02T11:17:51.310Z,65.2
2022-09-02T11:22:51.309Z,65.6
2022-09-02T11:27:51.318Z,66.3
2022-09-02T11:32:51.310Z,66.4
2022-09-02T11:37:51.311Z,65.4
2022-09-02T11:42:51.301Z,62.6
2022-09-02T11:47:51.311Z,61.8
2022-09-02T11:52:51.299Z,61.3
2022-09-02T11:57:51.321Z,60.9
2022-09-02T12:02:51.308Z,61.8
2022-09-02T12:07:51.302Z,62.0
2022-09-02T12:12:51.997Z,62.4
2022-09-02T12:17:51.302Z,62.2
2022-09-02T12:22:51.316Z,61.1
2022-09-02T12:27:51.314Z,61.5
2022-09-02T12:32:51.352Z,61.6
2022-09-02T12:37:51.323Z,62.1
2022-09-02T12:42:51.323Z,62.4
2022-09-02T12:47:51.334Z,62.8
2022-09-02T12:52:51.305Z,62.1
2022-09-02T12:57:51.330Z,61.7
2022-09-02T13:02:51.320Z,62.2
2022-09-02T13:07:51.319Z,62.1
2022-09-02T13:12:51.336Z,61.5
2022-09-02T13:17:51.314Z,61.4
2022-09-02T13:22:51.338Z,61.3
2022-09-02T13:27:51.321Z,60.6
2022-09-02T13:32:51.322Z,60.6
2022-09-02T13:37:51.472Z,60.3
2022-09-02T13:42:51.328Z,60.1
2022-09-02T13:47:51.325Z,60.4
2022-09-02T13:53:46.004Z,60.9
2022-09-02T13:57:51.312Z,61.5
2022-09-02T14:02:51.479Z,61.8
2022-09-02T14:07:51.325Z,62.0
2022-09-02T14:12:51.340Z,62.3
2022-09-02T14:17:51.341Z,62.5
2022-09-02T14:22:51.327Z,63.6
2022-09-02T14:27:51.334Z,64.5
2022-09-02T14:32:51.324Z,65.0
2022-09-02T14:37:51.324Z,65.1
2022-09-02T14:42:56.605Z,65.0
2022-09-02T14:47:51.329Z,65.0
2022-09-02T14:52:51.347Z,65.2
2022-09-02T14:57:51.336Z,64.7
2022-09-02T15:02:51.330Z,64.4
2022-09-02T15:07:51.346Z,64.7
2022-09-02T15:12:51.408Z,64.6
2022-09-02T15:17:51.353Z,64.6
2022-09-02T15:22:51.336Z,64.3
2022-09-02T15:27:51.335Z,64.6
2022-09-02T15:32:51.333Z,64.9
2022-09-02T15:37:51.345Z,65.2
2022-09-02T15:42:51.334Z,65.7
2022-09-02T15:47:51.342Z,65.9
2022-09-02T15:52:51.337Z,66.4
2022-09-02T15:57:51.347Z,67.2
2022-09-02T16:02:51.372Z,67.7
2022-09-02T16:07:51.332Z,67.9
2022-09-02T16:12:51.319Z,68.1
2022-09-02T16:17:51.378Z,68.4
2022-09-02T16:22:51.342Z,68.8
2022-09-02T16:27:51.358Z,68.9
2022-09-02T16:32:51.339Z,69.3
2022-09-02T16:37:51.352Z,69.4
2022-09-02T16:42:51.345Z,69.6
2022-09-02T16:47:51.381Z,69.7
2022-09-02T16:52:51.347Z,69.8
2022-09-02T16:57:51.357Z,69.6
2022-09-02T17:02:51.411Z,69.4
2022-09-02T17:07:51.368Z,69.5
2022-09-02T17:12:51.361Z,69.8
2022-09-02T17:17:51.344Z,70.2
2022-09-02T17:22:51.357Z,70.7
2022-09-02T17:27:51.363Z,71.1
2022-09-02T17:32:55.784Z,71.5
2022-09-02T17:37:51.357Z,71.7
2022-09-02T17:42:51.355Z,72.0
2022-09-02T17:47:51.370Z,72.0
2022-09-02T17:52:51.368Z,72.0
2022-09-02T17:57:51.383Z,72.0
2022-09-02T18:02:55.195Z,72.1
2022-09-02T18:07:51.355Z,72.0
2022-09-02T18:12:51.356Z,72.1
2022-09-02T18:17:51.368Z,72.2
2022-09-02T18:22:51.365Z,72.3
2022-09-02T18:27:52.633Z,72.5
2022-09-02T18:32:51.359Z,72.6
2022-09-02T18:37:51.376Z,73.0
2022-09-02T18:42:51.350Z,73.6
2022-09-02T18:47:51.368Z,74.2
2022-09-02T18:52:51.379Z,74.6
2022-09-02T18:57:51.354Z,74.9
2022-09-02T19:02:51.363Z,75.3
2022-09-02T19:07:51.377Z,76.1
2022-09-02T19:12:51.358Z,76.6
2022-09-02T19:17:51.372Z,77.8
2022-09-02T19:22:51.381Z,78.3
2022-09-02T19:27:51.332Z,78.5
2022-09-02T19:32:51.360Z,79.5
2022-09-02T19:37:51.679Z,80.4
2022-09-02T19:42:51.365Z,80.7
2022-09-02T19:48:07.632Z,81.2
2022-09-02T19:52:51.381Z,81.8
2022-09-02T19:57:51.379Z,82.5
2022-09-02T20:02:51.358Z,83.1
2022-09-02T20:07:51.379Z,83.6
2022-09-02T20:12:51.369Z,84.3
2022-09-02T20:17:51.382Z,84.8
2022-09-02T20:22:51.377Z,85.0
2022-09-02T20:27:51.380Z,85.5
2022-09-02T20:32:51.338Z,85.6
2022-09-02T20:37:51.381Z,85.6
2022-09-02T20:42:51.364Z,86.0
2022-09-02T20:47:51.384Z,86.2
2022-09-02T20:52:51.391Z,86.3
2022-09-02T20:57:51.381Z,86.2
2022-09-02T21:02:51.377Z,86.4
2022-09-02T21:07:51.374Z,86.4
2022-09-02T21:12:51.394Z,86.5
2022-09-02T21:17:51.392Z,86.4
2022-09-02T21:22:52.632Z,86.6
2022-09-02T21:27:51.398Z,87.1
2022-09-02T21:32:51.399Z,87.0
2022-09-02T21:37:51.380Z,87.6
2022-09-02T21:42:51.378Z,87.9
2022-09-02T21:47:51.420Z,88.1
2022-09-02T21:52:51.377Z,87.9
2022-09-02T21:57:51.394Z,88.5
2022-09-02T22:02:51.385Z,88.7
2022-09-02T22:07:51.380Z,89.8
2022-09-02T22:12:52.534Z,90.2
2022-09-02T22:17:51.401Z,90.3
2022-09-02T22:22:51.382Z,90.9
2022-09-02T22:27:51.388Z,90.9
2022-09-02T22:32:51.392Z,90.8
2022-09-02T22:37:51.386Z,90.7
2022-09-02T22:42:51.381Z,90.9
2022-09-02T22:47:51.397Z,91.0
2022-09-02T22:52:51.385Z,91.1
2022-09-02T22:57:51.387Z,91.3
2022-09-02T23:02:51.397Z,91.7
2022-09-02T23:07:51.406Z,91.9
2022-09-02T23:12:51.382Z,92.0
2022-09-02T23:17:51.405Z,92.7
2022-09-02T23:22:51.395Z,92.8
2022-09-02T23:27:51.398Z,92.9
2022-09-02T23:32:51.405Z,92.8
2022-09-02T23:37:51.392Z,93.0
2022-09-02T23:42:51.400Z,92.9
2022-09-02T23:47:51.402Z,92.8
2022-09-02T23:52:51.381Z,92.7
2022-09-02T23:57:51.402Z,92.6
